createdAt,value
2022-11-17T00:01:53.791Z,8.27
2022-11-17T00:04:28.699Z,6.58
2022-11-17T00:07:02.698Z,7.80
2022-11-17T00:09:53.790Z,7.25
2022-11-17T00:12:51.525Z,8.97
2022-11-17T00:15:34.520Z,7.87
2022-11-17T00:18:25.017Z,9.13
2022-11-17T00:21:17.466Z,5.97
2022-11-17T00:23:58.021Z,7.42
2022-11-17T00:26:38.674Z,6.92
2022-11-17T00:29:16.286Z,9.15
2022-11-17T00:32:10.996Z,7.87
2022-11-17T00:34:45.318Z,7.37
2022-11-17T00:37:21.366Z,6.80
2022-11-17T00:40:00.512Z,7.83
2022-11-17T00:42:43.473Z,6.00
2022-11-17T00:45:20.850Z,6.03
2022-11-17T00:47:54.061Z,6.27
2022-11-17T00:50:38.808Z,5.67
2022-11-17T00:53:10.500Z,5.42
2022-11-17T00:55:47.786Z,8.18
2022-11-17T00:58:22.206Z,7.70
2022-11-17T01:01:05.306Z,5.90
2022-11-17T01:03:50.694Z,7.57
2022-11-17T01:06:25.211Z,6.62
2022-11-17T01:09:03.238Z,7.67
2022-11-17T01:11:41.808Z,8.10
2022-11-17T01:14:19.190Z,6.57
2022-11-17T01:16:54.554Z,7.42
2022-11-17T01:19:34.517Z,6.33
2022-11-17T01:22:13.632Z,4.95
2022-11-17T01:24:48.518Z,8.08
2022-11-17T01:27:29.015Z,5.67
2022-11-17T01:30:02.291Z,7.55
2022-11-17T01:32:41.700Z,5.60
2022-11-17T01:35:17.463Z,7.30
2022-11-17T01:38:05.232Z,5.53
2022-11-17T01:40:35.388Z,8.18
2022-11-17T01:43:15.047Z,5.65
2022-11-17T01:46:00.873Z,6.33
2022-11-17T01:48:32.568Z,7.30
2022-11-17T01:51:04.628Z,7.25
2022-11-17T01:53:47.392Z,7.07
2022-11-17T01:56:24.332Z,6.53
2022-11-17T01:59:20.994Z,8.13
2022-11-17T02:02:02.843Z,6.77
2022-11-17T02:04:50.575Z,9.47
2022-11-17T02:07:38.561Z,7.13
2022-11-17T02:10:24.400Z,9.18
2022-11-17T02:12:59.670Z,8.60
2022-11-17T02:15:34.833Z,8.30
2022-11-17T02:18:09.930Z,7.17
2022-11-17T02:21:19.134Z,6.33
2022-11-17T02:24:23.702Z,5.47
2022-11-17T02:27:10.043Z,8.33
2022-11-17T02:30:07.100Z,8.00
2022-11-17T02:33:23.953Z,5.78
2022-11-17T02:36:10.298Z,8.03
2022-11-17T02:38:47.717Z,6.72
2022-11-17T02:41:42.966Z,6.08
2022-11-17T02:44:30.682Z,5.37
2022-11-17T02:47:20.358Z,8.63
2022-11-17T02:50:03.734Z,6.22
2022-11-17T02:52:43.166Z,8.35
2022-11-17T02:55:18.713Z,6.13
2022-11-17T02:58:03.428Z,6.12
2022-11-17T03:00:37.852Z,7.65
2022-11-17T03:03:20.569Z,4.90
2022-11-17T03:06:31.480Z,5.62
2022-11-17T03:09:21.343Z,5.47
2022-11-17T03:12:16.645Z,5.17
2022-11-17T03:15:10.611Z,6.05
2022-11-17T03:18:07.658Z,5.93
2022-11-17T03:20:52.115Z,6.97
2022-11-17T03:23:26.172Z,5.90
2022-11-17T03:26:11.223Z,4.73
2022-11-17T03:29:00.668Z,6.63
2022-11-17T03:31:35.197Z,5.43
2022-11-17T03:34:09.586Z,6.70
2022-11-17T03:36:50.935Z,6.93
2022-11-17T03:39:28.259Z,6.67
2022-11-17T03:42:08.636Z,5.28
2022-11-17T03:44:53.062Z,7.50
2022-11-17T03:47:51.542Z,4.87
2022-11-17T03:50:46.591Z,7.23
2022-11-17T03:53:26.434Z,6.17
2022-11-17T03:56:02.390Z,4.30
2022-11-17T03:58:39.818Z,5.30
2022-11-17T04:01:19.019Z,7.77
2022-11-17T04:04:02.608Z,7.25
2022-11-17T04:06:38.761Z,8.00
2022-11-17T04:09:18.702Z,8.33
2022-11-17T04:12:09.502Z,12.10
2022-11-17T04:15:04.754Z,16.73
2022-11-17T04:17:47.811Z,5.25
2022-11-17T04:20:29.189Z,5.50
2022-11-17T04:23:16.996Z,9.43
2022-11-17T04:26:16.852Z,6.67
2022-11-17T04:28:51.037Z,8.53
2022-11-17T04:31:44.860Z,10.38
2022-11-17T04:34:26.905Z,9.38
2022-11-17T04:37:11.803Z,8.83
2022-11-17T04:39:52.253Z,8.18
2022-11-17T04:42:48.332Z,6.97
2022-11-17T04:45:40.874Z,7.92
2022-11-17T04:48:18.364Z,11.10
2022-11-17T04:51:06.016Z,8.73
2022-11-17T04:53:43.251Z,8.55
2022-11-17T04:56:19.371Z,12.20
2022-11-17T04:58:57.639Z,11.43
2022-11-17T05:01:33.846Z,8.73
2022-11-17T05:04:21.697Z,10.50
2022-11-17T05:06:56.264Z,8.37
2022-11-17T05:09:39.790Z,10.18
2022-11-17T05:12:39.105Z,9.07
2022-11-17T05:15:18.752Z,8.63
2022-11-17T05:18:01.860Z,7.47
2022-11-17T05:20:38.878Z,7.60
2022-11-17T05:23:37.226Z,10.93
2022-11-17T05:26:14.922Z,10.20
2022-11-17T05:28:52.158Z,10.05
2022-11-17T05:31:31.190Z,12.88
2022-11-17T05:34:29.531Z,13.45
2022-11-17T05:37:12.845Z,8.85
2022-11-17T05:39:53.090Z,10.27
2022-11-17T05:42:31.789Z,11.35
2022-11-17T05:45:18.463Z,12.20
2022-11-17T05:48:09.263Z,12.88
2022-11-17T05:50:45.266Z,15.25
2022-11-17T05:53:32.428Z,16.70
2022-11-17T05:56:27.432Z,14.73
2022-11-17T05:59:27.573Z,12.20
2022-11-17T06:02:17.013Z,9.97
2022-11-17T06:04:53.330Z,11.60
2022-11-17T06:07:38.601Z,12.50
2022-11-17T06:10:14.093Z,10.63
2022-11-17T06:12:58.820Z,12.58
2022-11-17T06:15:30.854Z,11.43
2022-11-17T06:18:07.085Z,12.90
2022-11-17T06:20:49.791Z,10.65
2022-11-17T06:23:27.208Z,13.62
2022-11-17T06:26:07.463Z,15.35
2022-11-17T06:28:50.517Z,12.35
2022-11-17T06:31:24.921Z,10.05
2022-11-17T06:34:07.130Z,12.95
2022-11-17T06:36:56.322Z,15.43
2022-11-17T06:39:40.204Z,11.33
2022-11-17T06:42:24.262Z,14.38
2022-11-17T06:45:18.267Z,13.90
2022-11-17T06:48:00.087Z,17.35
2022-11-17T06:50:42.676Z,15.10
2022-11-17T06:53:21.609Z,12.53
2022-11-17T06:56:02.194Z,14.40
2022-11-17T06:58:59.218Z,15.80
2022-11-17T07:01:41.648Z,17.92
2022-11-17T07:04:17.753Z,18.77
2022-11-17T07:06:55.427Z,21.20
2022-11-17T07:09:38.757Z,20.20
2022-11-17T07:12:20.237Z,16.15
2022-11-17T07:15:13.955Z,19.03
2022-11-17T07:18:00.226Z,20.13
2022-11-17T07:20:53.230Z,18.52
2022-11-17T07:23:49.882Z,21.23
2022-11-17T07:26:34.722Z,18.63
2022-11-17T07:29:39.608Z,19.20
2022-11-17T07:32:32.562Z,19.45
2022-11-17T07:35:19.920Z,23.80
2022-11-17T07:38:12.241Z,22.58
2022-11-17T07:40:55.699Z,21.60
2022-11-17T07:43:53.969Z,27.65
2022-11-17T07:46:27.714Z,25.10
2022-11-17T07:49:03.599Z,24.90
2022-11-17T07:51:50.079Z,26.15
2022-11-17T07:54:33.036Z,23.73
2022-11-17T07:57:13.322Z,30.80
2022-11-17T07:59:49.253Z,25.02
2022-11-17T08:02:32.388Z,32.90
2022-11-17T08:05:37.090Z,29.00
2022-11-17T08:08:09.302Z,28.25
2022-11-17T08:10:51.116Z,29.48
2022-11-17T08:13:31.250Z,28.65
2022-11-17T08:16:21.791Z,33.38
2022-11-17T08:19:09.615Z,27.17
2022-11-17T08:21:46.967Z,30.27
2022-11-17T08:24:27.629Z,35.90
2022-11-17T08:27:20.649Z,29.20
2022-11-17T08:29:56.826Z,32.47
2022-11-17T08:32:39.227Z,31.23
2022-11-17T08:35:24.572Z,32.67
2022-11-17T08:38:07.985Z,29.67
2022-11-17T08:40:44.988Z,28.32
2022-11-17T08:43:22.644Z,25.00
2022-11-17T08:46:02.266Z,27.97
2022-11-17T08:49:01.171Z,34.33
2022-11-17T08:52:03.605Z,32.00
2022-11-17T08:54:53.020Z,33.75
2022-11-17T08:57:42.271Z,34.93
2022-11-17T09:00:18.611Z,35.23
2022-11-17T09:02:52.960Z,32.45
2022-11-17T09:05:52.947Z,31.33
2022-11-17T09:08:47.158Z,33.98
2022-11-17T09:11:32.358Z,31.33
2022-11-17T09:14:24.527Z,26.48
2022-11-17T09:19:52.558Z,34.43
2022-11-17T09:22:28.482Z,36.33
2022-11-17T09:25:17.185Z,31.65
2022-11-17T09:28:06.865Z,32.88
2022-11-17T09:30:54.672Z,29.98
2022-11-17T09:33:41.606Z,32.53
2022-11-17T09:36:21.898Z,32.20
2022-11-17T09:39:02.588Z,32.40
2022-11-17T09:41:56.086Z,30.82
2022-11-17T09:44:41.085Z,32.55
2022-11-17T09:47:36.551Z,30.43
2022-11-17T09:50:22.597Z,33.78
2022-11-17T09:53:00.715Z,35.35
2022-11-17T09:55:45.506Z,33.50
2022-11-17T09:58:34.921Z,32.45
2022-11-17T10:01:04.912Z,30.12
2022-11-17T10:03:41.951Z,33.83
2022-11-17T10:06:10.844Z,32.00
2022-11-17T10:09:01.084Z,29.75
2022-11-17T10:11:33.793Z,32.15
2022-11-17T10:14:12.200Z,32.10
2022-11-17T10:16:44.776Z,34.30
2022-11-17T10:19:20.337Z,28.85
2022-11-17T10:21:55.463Z,27.07
2022-11-17T10:24:47.584Z,26.55
2022-11-17T10:27:29.005Z,29.55
2022-11-17T10:30:10.581Z,33.77
2022-11-17T10:32:55.266Z,29.13
2022-11-17T10:35:27.765Z,25.30
2022-11-17T10:38:08.895Z,26.00
2022-11-17T10:40:44.441Z,27.97
2022-11-17T10:43:18.898Z,27.75
2022-11-17T10:45:54.045Z,32.20
2022-11-17T10:48:32.417Z,29.73
2022-11-17T10:51:04.687Z,26.12
2022-11-17T10:53:46.087Z,29.15
2022-11-17T10:56:17.052Z,32.00
2022-11-17T10:59:10.615Z,30.25
2022-11-17T11:01:45.757Z,28.40
2022-11-17T11:04:36.183Z,32.75
2022-11-17T11:07:24.315Z,31.60
2022-11-17T11:10:05.943Z,31.73
2022-11-17T11:12:50.616Z,27.48
2022-11-17T11:15:23.155Z,29.17
2022-11-17T11:17:53.126Z,31.57
2022-11-17T11:20:25.654Z,29.63
2022-11-17T11:23:03.797Z,29.50
2022-11-17T11:25:39.300Z,23.52
2022-11-17T11:28:28.503Z,30.23
2022-11-17T11:31:01.231Z,27.48
2022-11-17T11:33:39.817Z,29.63
2022-11-17T11:36:29.253Z,28.20
2022-11-17T11:39:04.422Z,29.57
2022-11-17T11:41:55.190Z,26.27
2022-11-17T11:44:42.166Z,26.40
2022-11-17T11:47:38.803Z,29.57
2022-11-17T11:50:27.715Z,30.27
2022-11-17T11:53:16.853Z,31.50
2022-11-17T11:55:49.346Z,28.50
2022-11-17T11:58:24.359Z,29.52
2022-11-17T12:00:56.388Z,30.47
2022-11-17T12:03:28.707Z,27.50
2022-11-17T12:06:37.314Z,28.53
2022-11-17T12:09:29.110Z,29.73
2022-11-17T12:12:03.491Z,29.13
2022-11-17T12:14:39.369Z,24.85
2022-11-17T12:17:13.477Z,25.60
2022-11-17T12:20:04.621Z,28.35
2022-11-17T12:22:35.056Z,26.73
2022-11-17T12:25:22.600Z,27.60
2022-11-17T12:27:54.207Z,29.20
2022-11-17T12:30:37.363Z,26.40
2022-11-17T12:33:09.497Z,28.53
2022-11-17T12:35:40.773Z,24.43
2022-11-17T12:38:20.965Z,32.85
2022-11-17T12:40:56.168Z,24.57
2022-11-17T12:43:29.452Z,24.27
2022-11-17T12:46:17.152Z,23.10
2022-11-17T12:48:52.427Z,23.87
2022-11-17T12:51:42.917Z,27.77
2022-11-17T12:54:30.339Z,28.17
2022-11-17T12:57:08.613Z,23.90
2022-11-17T12:59:57.620Z,23.27
2022-11-17T13:02:47.965Z,22.40
2022-11-17T13:05:22.786Z,30.63
2022-11-17T13:07:57.451Z,27.50
2022-11-17T13:10:31.696Z,21.25
2022-11-17T13:13:24.814Z,26.83
2022-11-17T13:15:58.979Z,28.20
2022-11-17T13:18:39.801Z,27.35
2022-11-17T13:21:28.832Z,27.10
2022-11-17T13:24:01.183Z,26.50
2022-11-17T13:26:36.006Z,26.75
2022-11-17T13:29:14.634Z,23.02
2022-11-17T13:31:44.153Z,24.10
2022-11-17T13:34:24.124Z,27.53
2022-11-17T13:36:56.340Z,26.10
2022-11-17T13:39:28.085Z,21.10
2022-11-17T13:42:01.215Z,29.30
2022-11-17T13:44:32.378Z,27.52
2022-11-17T13:47:20.896Z,22.80
2022-11-17T13:49:50.702Z,27.70
2022-11-17T13:52:40.528Z,25.05
2022-11-17T13:55:13.282Z,27.05
2022-11-17T13:57:45.808Z,23.43
2022-11-17T14:00:19.632Z,26.30
2022-11-17T14:02:58.155Z,30.13
2022-11-17T14:05:30.298Z,29.43
2022-11-17T14:08:14.747Z,31.17
2022-11-17T14:10:45.960Z,25.85
2022-11-17T14:13:24.504Z,24.60
2022-11-17T14:15:57.080Z,26.13
2022-11-17T14:18:33.513Z,27.98
2022-11-17T14:21:12.434Z,25.53
2022-11-17T14:23:44.392Z,24.65
2022-11-17T14:26:21.771Z,25.32
2022-11-17T14:28:53.711Z,24.45
2022-11-17T14:31:23.195Z,26.97
2022-11-17T14:33:52.771Z,23.25
2022-11-17T14:36:22.630Z,25.47
2022-11-17T14:38:53.199Z,23.50
2022-11-17T14:41:22.747Z,23.67
2022-11-17T14:43:52.258Z,23.67
2022-11-17T14:46:24.886Z,26.10
2022-11-17T14:48:55.813Z,26.17
2022-11-17T14:51:26.960Z,23.40
2022-11-17T14:53:57.230Z,24.10
2022-11-17T14:56:27.171Z,25.17
2022-11-17T14:58:59.173Z,25.57
2022-11-17T15:01:31.825Z,24.77
2022-11-17T15:04:21.099Z,27.52
2022-11-17T15:06:35.873Z,24.87
2022-11-17T15:09:08.721Z,22.35
2022-11-17T15:11:39.531Z,28.93
2022-11-17T15:14:09.238Z,30.20
2022-11-17T15:16:38.856Z,23.07
2022-11-17T15:19:08.286Z,26.52
2022-11-17T15:21:37.786Z,27.58
2022-11-17T15:24:09.116Z,21.90
2022-11-17T15:26:38.855Z,20.17
2022-11-17T15:29:09.526Z,20.62
2022-11-17T15:31:39.208Z,24.10
2022-11-17T15:34:11.682Z,21.40
2022-11-17T15:36:42.425Z,19.52
2022-11-17T15:39:13.269Z,21.47
2022-11-17T15:41:43.277Z,22.00
2022-11-17T15:44:12.920Z,19.45
2022-11-17T15:46:47.419Z,22.23
2022-11-17T15:49:15.511Z,25.62
2022-11-17T15:51:45.431Z,22.00
2022-11-17T15:54:20.307Z,24.98
2022-11-17T15:56:46.478Z,24.43
2022-11-17T15:59:16.418Z,21.03
2022-11-17T16:01:46.659Z,23.60
2022-11-17T16:04:16.701Z,25.85
2022-11-17T16:06:47.584Z,25.75
2022-11-17T16:09:17.597Z,27.27
2022-11-17T16:11:47.621Z,25.50
2022-11-17T16:14:17.264Z,24.53
2022-11-17T16:16:48.407Z,23.57
2022-11-17T16:19:19.496Z,26.27
2022-11-17T16:21:50.061Z,28.90
2022-11-17T16:24:19.541Z,31.00
2022-11-17T16:26:49.119Z,29.48
2022-11-17T16:29:18.804Z,33.15
2022-11-17T16:31:48.520Z,36.98
2022-11-17T16:34:19.558Z,37.43
2022-11-17T16:36:49.151Z,34.27
2022-11-17T16:39:20.050Z,25.70
2022-11-17T16:41:51.571Z,28.73
2022-11-17T16:44:21.177Z,39.05
2022-11-17T16:46:50.853Z,50.87
2022-11-17T16:49:22.159Z,73.17
2022-11-17T16:51:55.150Z,60.52
2022-11-17T16:54:24.644Z,47.67
2022-11-17T16:56:54.086Z,63.80
2022-11-17T16:59:23.705Z,66.07
2022-11-17T17:01:53.282Z,30.02
2022-11-17T17:04:22.727Z,28.42
2022-11-17T17:06:52.248Z,22.62
2022-11-17T17:09:27.677Z,22.15
2022-11-17T17:11:53.918Z,25.20
2022-11-17T17:14:23.536Z,21.90
2022-11-17T17:16:53.034Z,31.12
2022-11-17T17:19:22.620Z,28.85
2022-11-17T17:21:52.283Z,22.82
2022-11-17T17:24:22.162Z,16.82
2022-11-17T17:26:51.735Z,16.90
2022-11-17T17:29:21.364Z,19.55
2022-11-17T17:31:50.931Z,18.48
2022-11-17T17:34:20.445Z,20.55
2022-11-17T17:36:49.958Z,17.57
2022-11-17T17:39:19.650Z,20.80
2022-11-17T17:41:49.405Z,17.62
2022-11-17T17:44:20.308Z,14.20
2022-11-17T17:46:49.981Z,18.77
2022-11-17T17:49:19.832Z,20.50
2022-11-17T17:51:50.224Z,27.80
2022-11-17T17:54:23.451Z,28.50
2022-11-17T17:56:53.101Z,20.68
2022-11-17T17:59:23.373Z,19.00
2022-11-17T18:01:53.527Z,23.00
2022-11-17T18:04:35.840Z,22.27
2022-11-17T18:07:15.327Z,19.45
2022-11-17T18:09:47.571Z,26.42
2022-11-17T18:12:18.778Z,22.35
2022-11-17T18:14:48.388Z,21.83
2022-11-17T18:17:17.962Z,23.67
2022-11-17T18:19:47.558Z,22.83
2022-11-17T18:22:17.782Z,24.80
2022-11-17T18:24:47.232Z,28.17
2022-11-17T18:27:19.510Z,28.03
2022-11-17T18:29:50.069Z,28.42
2022-11-17T18:32:19.581Z,26.90
2022-11-17T18:34:49.112Z,29.27
2022-11-17T18:37:18.664Z,27.57
2022-11-17T18:39:49.166Z,27.70
2022-11-17T18:42:18.671Z,23.10
2022-11-17T18:44:48.234Z,27.30
2022-11-17T18:47:20.634Z,23.35
2022-11-17T18:49:50.215Z,25.48
2022-11-17T18:52:19.789Z,23.02
2022-11-17T18:54:49.354Z,23.40
2022-11-17T18:57:18.872Z,18.40
2022-11-17T18:59:48.395Z,15.10
2022-11-17T19:02:17.902Z,20.70
2022-11-17T19:04:47.569Z,36.53
2022-11-17T19:07:17.162Z,23.63
2022-11-17T19:09:47.341Z,26.67
2022-11-17T19:12:18.443Z,25.07
2022-11-17T19:14:48.040Z,23.20
2022-11-17T19:17:17.900Z,23.20
2022-11-17T19:19:47.571Z,16.57
2022-11-17T19:22:17.299Z,15.53
2022-11-17T19:24:46.892Z,14.65
2022-11-17T19:27:16.483Z,14.90
2022-11-17T19:29:46.161Z,12.10
2022-11-17T19:32:15.824Z,10.63
2022-11-17T19:34:45.386Z,14.80
2022-11-17T19:37:14.920Z,20.52
2022-11-17T19:39:44.423Z,17.90
2022-11-17T19:42:14.174Z,13.13
2022-11-17T19:44:43.625Z,27.17
2022-11-17T19:47:13.338Z,10.75
2022-11-17T19:49:42.859Z,9.45
2022-11-17T19:52:12.321Z,8.70
2022-11-17T19:54:41.822Z,8.75
2022-11-17T19:57:11.339Z,13.88
2022-11-17T19:59:40.869Z,13.03
2022-11-17T20:02:12.716Z,15.53
2022-11-17T20:04:42.161Z,10.00
2022-11-17T20:07:13.593Z,10.87
2022-11-17T20:09:43.170Z,15.45
2022-11-17T20:12:12.674Z,15.13
2022-11-17T20:14:42.254Z,11.48
2022-11-17T20:17:11.770Z,15.67
2022-11-17T20:19:41.197Z,13.70
2022-11-17T20:22:10.703Z,9.60
2022-11-17T20:24:40.626Z,10.05
2022-11-17T20:27:10.168Z,10.93
2022-11-17T20:29:39.607Z,9.05
2022-11-17T20:32:09.199Z,10.50
2022-11-17T20:34:38.702Z,10.78
2022-11-17T20:37:08.203Z,10.88
2022-11-17T20:39:37.744Z,13.50
2022-11-17T20:42:07.737Z,13.18
2022-11-17T20:44:37.278Z,17.10
2022-11-17T20:47:06.965Z,11.45
2022-11-17T20:49:36.481Z,13.95
2022-11-17T20:52:10.501Z,16.70
2022-11-17T20:54:37.196Z,16.50
2022-11-17T20:57:06.723Z,16.60
2022-11-17T20:59:36.213Z,14.60
2022-11-17T21:02:05.786Z,13.43
2022-11-17T21:04:35.312Z,13.43
2022-11-17T21:07:06.045Z,15.72
2022-11-17T21:09:35.706Z,15.53
2022-11-17T21:12:05.359Z,12.60
2022-11-17T21:14:34.964Z,13.88
2022-11-17T21:17:04.568Z,13.30
2022-11-17T21:19:38.804Z,15.00
2022-11-17T21:22:05.305Z,14.15
2022-11-17T21:24:34.739Z,11.65
2022-11-17T21:27:04.314Z,9.70
2022-11-17T21:29:33.786Z,8.58
2022-11-17T21:32:03.281Z,10.53
2022-11-17T21:34:33.613Z,10.18
2022-11-17T21:37:03.112Z,9.20
2022-11-17T21:39:32.623Z,10.50
2022-11-17T21:42:02.187Z,8.70
2022-11-17T21:44:31.764Z,11.85
2022-11-17T21:47:01.191Z,10.50
2022-11-17T21:49:32.149Z,8.80
2022-11-17T21:52:01.702Z,10.87
2022-11-17T21:54:31.283Z,9.73
2022-11-17T21:57:01.866Z,10.63
2022-11-17T21:59:31.435Z,7.30
2022-11-17T22:02:01.071Z,11.93
2022-11-17T22:04:33.669Z,11.97
2022-11-17T22:07:03.236Z,11.60
2022-11-17T22:09:32.750Z,11.68
2022-11-17T22:12:02.280Z,9.33
2022-11-17T22:14:32.332Z,10.00
2022-11-17T22:17:01.836Z,13.50
2022-11-17T22:19:31.376Z,7.90
2022-11-17T22:22:00.858Z,9.68
2022-11-17T22:24:30.301Z,7.83
2022-11-17T22:26:59.889Z,6.40
2022-11-17T22:29:29.386Z,9.78
2022-11-17T22:31:58.818Z,8.63
2022-11-17T22:34:28.282Z,10.93
2022-11-17T22:36:57.868Z,10.03
2022-11-17T22:39:27.439Z,9.10
2022-11-17T22:41:56.954Z,8.50
2022-11-17T22:44:26.469Z,10.67
2022-11-17T22:46:56.029Z,12.35
2022-11-17T22:49:25.577Z,10.13
2022-11-17T22:52:04.064Z,9.60
2022-11-17T22:54:34.155Z,11.00
2022-11-17T22:57:03.837Z,6.05
2022-11-17T22:59:33.343Z,8.43
2022-11-17T23:02:02.887Z,6.95
2022-11-17T23:04:32.391Z,8.07
2022-11-17T23:07:01.913Z,7.40
2022-11-17T23:09:32.004Z,6.60
2022-11-17T23:12:01.590Z,7.70
2022-11-17T23:14:31.166Z,7.00
2022-11-17T23:17:00.854Z,9.25
2022-11-17T23:19:30.352Z,9.85
2022-11-17T23:21:59.800Z,6.85
2022-11-17T23:24:29.335Z,9.53
2022-11-17T23:26:58.765Z,7.40
2022-11-17T23:29:29.699Z,8.60
2022-11-17T23:31:59.270Z,7.77
2022-11-17T23:34:29.372Z,6.03
2022-11-17T23:37:03.545Z,7.90
2022-11-17T23:39:30.476Z,10.93
2022-11-17T23:42:00.141Z,10.03
2022-11-17T23:44:29.637Z,9.60
2022-11-17T23:46:59.210Z,8.37
2022-11-17T23:49:28.878Z,10.17
2022-11-17T23:51:58.518Z,9.75
2022-11-17T23:54:28.011Z,9.20
2022-11-17T23:56:57.553Z,8.20
2022-11-17T23:59:27.059Z,8.65
